createdAt,value
2023-05-05T00:00:15.895Z,99494.53
2023-05-05T00:03:20.519Z,99493.66
2023-05-05T00:06:24.128Z,99488.69
2023-05-05T00:09:27.550Z,99488.84
2023-05-05T00:12:32.542Z,99487.56
2023-05-05T00:15:36.686Z,99482.63
2023-05-05T00:18:40.285Z,99488.34
2023-05-05T00:21:43.865Z,99487.25
2023-05-05T00:24:47.651Z,99478.75
2023-05-05T00:27:52.451Z,99474.31
2023-05-05T00:30:55.960Z,99470.28
2023-05-05T00:33:59.789Z,99469.13
2023-05-05T00:37:03.523Z,99477.72
2023-05-05T00:40:08.335Z,99474.94
2023-05-05T00:43:13.915Z,99468.78
2023-05-05T00:46:24.845Z,99473.88
2023-05-05T00:49:37.229Z,99471.69
2023-05-05T00:52:41.084Z,99466.03
2023-05-05T00:55:44.483Z,99478.09
2023-05-05T00:58:56.942Z,99464.91
2023-05-05T01:02:01.303Z,99475.00
2023-05-05T01:05:06.351Z,99469.34
2023-05-05T01:08:28.946Z,99476.94
2023-05-05T01:11:40.323Z,99479.59
2023-05-05T01:14:54.493Z,99472.88
2023-05-05T01:18:06.017Z,99479.56
2023-05-05T01:21:15.680Z,99473.78
2023-05-05T01:24:45.260Z,99467.31
2023-05-05T01:28:02.170Z,99478.50
2023-05-05T01:31:24.863Z,99476.97
2023-05-05T01:34:36.939Z,99477.81
2023-05-05T01:37:48.872Z,99477.66
2023-05-05T01:40:58.704Z,99471.53
2023-05-05T01:44:06.200Z,99481.34
2023-05-05T01:47:11.944Z,99477.50
2023-05-05T01:50:18.111Z,99480.09
2023-05-05T01:53:25.353Z,99477.50
2023-05-05T01:56:31.831Z,99470.56
2023-05-05T01:59:35.586Z,99463.31
2023-05-05T02:02:41.986Z,99463.78
2023-05-05T02:05:48.904Z,99461.63
2023-05-05T02:08:54.423Z,99458.25
2023-05-05T02:12:00.810Z,99460.53
2023-05-05T02:15:07.490Z,99442.28
2023-05-05T02:18:12.390Z,99448.84
2023-05-05T02:21:20.180Z,99446.84
2023-05-05T02:24:23.764Z,99446.66
2023-05-05T02:27:29.496Z,99447.50
2023-05-05T02:30:36.574Z,99448.59
2023-05-05T02:33:41.652Z,99446.94
2023-05-05T02:36:47.821Z,99442.59
2023-05-05T02:39:59.073Z,99442.34
2023-05-05T02:43:11.301Z,99439.94
2023-05-05T02:46:15.170Z,99439.84
2023-05-05T02:49:21.683Z,99443.63
2023-05-05T02:52:27.012Z,99439.09
2023-05-05T02:55:37.756Z,99443.03
2023-05-05T02:58:49.941Z,99442.28
2023-05-05T03:02:02.173Z,99432.75
2023-05-05T03:05:14.248Z,99436.69
2023-05-05T03:08:32.321Z,99442.41
2023-05-05T03:11:41.592Z,99439.34
2023-05-05T03:14:47.248Z,99437.63
2023-05-05T03:17:55.459Z,99449.38
2023-05-05T03:21:08.007Z,99447.56
2023-05-05T03:24:16.806Z,99459.56
2023-05-05T03:27:24.959Z,99453.97
2023-05-05T03:30:28.574Z,99455.44
2023-05-05T03:33:32.284Z,99461.69
2023-05-05T03:36:37.555Z,99453.22
2023-05-05T03:39:42.821Z,99454.16
2023-05-05T03:42:48.041Z,99453.53
2023-05-05T03:45:51.757Z,99447.06
2023-05-05T03:48:57.321Z,99452.34
2023-05-05T03:52:02.341Z,99454.66
2023-05-05T03:55:08.608Z,99456.81
2023-05-05T03:58:12.077Z,99456.94
2023-05-05T04:01:15.762Z,99456.19
2023-05-05T04:04:19.347Z,99457.38
2023-05-05T04:07:23.825Z,99456.53
2023-05-05T04:10:29.315Z,99459.00
2023-05-05T04:13:33.092Z,99457.97
2023-05-05T04:16:36.873Z,99458.50
2023-05-05T04:19:40.798Z,99458.81
2023-05-05T04:22:46.062Z,99460.19
2023-05-05T04:25:51.732Z,99460.63
2023-05-05T04:28:55.329Z,99457.88
2023-05-05T04:31:59.010Z,99464.91
2023-05-05T04:35:02.965Z,99472.56
2023-05-05T04:38:07.112Z,99474.22
2023-05-05T04:41:12.553Z,99468.31
2023-05-05T04:44:18.613Z,99480.84
2023-05-05T04:47:22.287Z,99486.41
2023-05-05T04:50:26.258Z,99481.16
2023-05-05T04:53:29.971Z,99485.25
2023-05-05T04:56:34.909Z,99493.22
2023-05-05T04:59:38.328Z,99496.50
2023-05-05T05:02:41.899Z,99483.03
2023-05-05T05:05:45.822Z,99481.53
2023-05-05T05:08:50.327Z,99481.25
2023-05-05T05:11:55.373Z,99484.38
2023-05-05T05:14:59.018Z,99481.16
2023-05-05T05:18:02.586Z,99484.72
2023-05-05T05:21:06.351Z,99486.22
2023-05-05T05:24:11.612Z,99486.50
2023-05-05T05:27:16.667Z,99487.91
2023-05-05T05:30:23.550Z,99501.56
2023-05-05T05:33:27.324Z,99495.69
2023-05-05T05:36:32.872Z,99487.34
2023-05-05T05:39:36.643Z,99494.34
2023-05-05T05:42:42.720Z,99493.31
2023-05-05T05:45:46.801Z,99501.25
2023-05-05T05:48:50.691Z,99505.91
2023-05-05T05:51:55.217Z,99509.94
2023-05-05T05:54:59.327Z,99505.50
2023-05-05T05:58:04.521Z,99502.59
2023-05-05T06:01:08.220Z,99507.03
2023-05-05T06:04:13.334Z,99499.00
2023-05-05T06:07:17.325Z,99500.66
2023-05-05T06:13:31.714Z,99503.47
2023-05-05T06:16:35.498Z,99498.19
2023-05-05T06:19:43.478Z,99496.13
2023-05-05T06:22:47.077Z,99497.09
2023-05-05T06:25:50.989Z,99507.19
2023-05-05T06:28:56.186Z,99491.28
2023-05-05T06:32:01.274Z,99502.34
2023-05-05T06:35:05.144Z,99506.41
2023-05-05T06:38:09.843Z,99508.16
2023-05-05T06:41:13.252Z,99509.91
2023-05-05T06:44:18.129Z,99504.47
2023-05-05T06:47:21.967Z,99506.84
2023-05-05T06:50:27.131Z,99506.97
2023-05-05T06:53:30.773Z,99511.53
2023-05-05T06:56:34.660Z,99510.31
2023-05-05T06:59:39.534Z,99510.00
2023-05-05T07:02:43.248Z,99511.06
2023-05-05T07:05:47.128Z,99508.16
2023-05-05T07:08:50.486Z,99519.78
2023-05-05T07:11:53.938Z,99514.66
2023-05-05T07:15:00.705Z,99507.88
2023-05-05T07:18:07.011Z,99513.91
2023-05-05T07:21:10.790Z,99508.22
2023-05-05T07:24:14.255Z,99508.84
2023-05-05T07:27:17.905Z,99501.09
2023-05-05T07:30:34.956Z,99499.25
2023-05-05T07:33:39.186Z,99502.53
2023-05-05T07:36:42.734Z,99504.47
2023-05-05T07:39:47.551Z,99500.47
2023-05-05T07:42:51.083Z,99504.50
2023-05-05T07:45:55.968Z,99502.97
2023-05-05T07:48:59.583Z,99501.53
2023-05-05T07:52:02.976Z,99503.72
2023-05-05T07:55:07.359Z,99508.06
2023-05-05T07:58:12.106Z,99502.94
2023-05-05T08:01:17.125Z,99497.88
2023-05-05T08:04:20.648Z,99506.47
2023-05-05T08:07:24.378Z,99506.03
2023-05-05T08:10:27.766Z,99502.34
2023-05-05T08:13:31.560Z,99514.59
2023-05-05T08:16:36.558Z,99510.34
2023-05-05T08:19:40.413Z,99497.00
2023-05-05T08:22:43.854Z,99499.50
2023-05-05T08:25:47.332Z,99502.88
2023-05-05T08:28:50.787Z,99497.13
2023-05-05T08:31:56.547Z,99502.81
2023-05-05T08:35:00.280Z,99505.38
2023-05-05T08:38:03.835Z,99496.47
2023-05-05T08:41:11.199Z,99492.88
2023-05-05T08:44:17.135Z,99485.81
2023-05-05T08:47:22.351Z,99489.91
2023-05-05T08:50:28.164Z,99487.91
2023-05-05T08:53:47.364Z,99486.06
2023-05-05T08:56:53.732Z,99492.66
2023-05-05T08:59:58.970Z,99485.34
2023-05-05T09:03:06.413Z,99485.25
2023-05-05T09:06:15.217Z,99490.16
2023-05-05T09:09:18.874Z,99486.31
2023-05-05T09:12:23.292Z,99495.34
2023-05-05T09:15:28.425Z,99488.13
2023-05-05T09:18:33.266Z,99489.28
2023-05-05T09:21:36.874Z,99493.31
2023-05-05T09:24:55.769Z,99490.22
2023-05-05T09:27:59.284Z,99487.00
2023-05-05T09:31:16.089Z,99480.88
2023-05-05T09:34:21.350Z,99491.13
2023-05-05T09:37:29.488Z,99478.59
2023-05-05T09:40:46.961Z,99484.16
2023-05-05T09:43:53.006Z,99486.16
2023-05-05T09:46:58.324Z,99484.06
2023-05-05T09:50:03.282Z,99490.16
2023-05-05T09:53:07.335Z,99478.81
2023-05-05T09:56:11.307Z,99478.97
2023-05-05T09:59:14.979Z,99470.72
2023-05-05T10:02:18.344Z,99471.47
2023-05-05T10:05:29.432Z,99470.59
2023-05-05T10:08:34.443Z,99478.69
2023-05-05T10:11:38.706Z,99472.06
2023-05-05T10:14:42.996Z,99469.63
2023-05-05T10:21:00.565Z,99475.66
2023-05-05T10:24:11.859Z,99467.13
2023-05-05T10:27:18.596Z,99468.03
2023-05-05T10:30:24.745Z,99464.66
2023-05-05T10:33:37.215Z,99468.06
2023-05-05T10:36:43.134Z,99465.63
2023-05-05T10:39:46.875Z,99459.34
2023-05-05T10:42:51.911Z,99460.81
2023-05-05T10:45:56.218Z,99458.78
2023-05-05T10:49:13.274Z,99458.22
2023-05-05T10:52:27.459Z,99446.44
2023-05-05T10:55:41.323Z,99437.06
2023-05-05T10:58:58.924Z,99445.53
2023-05-05T11:02:03.016Z,99440.47
2023-05-05T11:05:18.592Z,99433.34
2023-05-05T11:08:29.578Z,99438.44
2023-05-05T11:12:03.602Z,99444.22
2023-05-05T11:15:37.964Z,99423.81
2023-05-05T11:18:44.683Z,99438.41
2023-05-05T11:22:02.063Z,99427.22
2023-05-05T11:25:36.149Z,99432.16
2023-05-05T11:29:00.450Z,99429.47
2023-05-05T11:32:13.936Z,99427.75
2023-05-05T11:35:17.688Z,99427.41
2023-05-05T11:38:27.570Z,99428.28
2023-05-05T11:42:10.435Z,99418.63
2023-05-05T11:45:23.982Z,99420.84
2023-05-05T11:48:28.071Z,99415.28
2023-05-05T11:51:32.774Z,99415.00
2023-05-05T11:54:37.580Z,99425.56
2023-05-05T11:57:41.104Z,99419.19
2023-05-05T12:00:46.158Z,99408.69
2023-05-05T12:03:50.676Z,99404.56
2023-05-05T12:06:55.474Z,99407.25
2023-05-05T12:09:59.374Z,99410.16
2023-05-05T12:13:03.001Z,99408.44
2023-05-05T12:16:13.549Z,99399.31
2023-05-05T12:19:17.109Z,99397.16
2023-05-05T12:22:23.315Z,99397.16
2023-05-05T12:25:27.273Z,99401.84
2023-05-05T12:28:44.892Z,99395.09
2023-05-05T12:31:50.050Z,99398.50
2023-05-05T12:34:56.315Z,99387.97
2023-05-05T12:38:00.167Z,99394.78
2023-05-05T12:41:04.131Z,99388.28
2023-05-05T12:44:08.138Z,99391.66
2023-05-05T12:47:13.775Z,99386.91
2023-05-05T12:50:31.348Z,99384.13
2023-05-05T12:53:34.825Z,99379.09
2023-05-05T12:56:40.642Z,99369.47
2023-05-05T12:59:44.240Z,99376.63
2023-05-05T13:02:49.200Z,99369.25
2023-05-05T13:05:52.790Z,99365.31
2023-05-05T13:08:56.892Z,99365.91
2023-05-05T13:12:01.041Z,99347.50
2023-05-05T13:15:04.826Z,99356.63
2023-05-05T13:18:09.797Z,99353.34
2023-05-05T13:21:13.499Z,99345.66
2023-05-05T13:27:23.997Z,99344.06
2023-05-05T13:30:27.615Z,99346.06
2023-05-05T13:33:34.942Z,99344.22
2023-05-05T13:36:38.392Z,99335.06
2023-05-05T13:39:41.811Z,99348.91
2023-05-05T13:42:45.353Z,99340.22
2023-05-05T13:45:49.466Z,99342.03
2023-05-05T13:48:56.648Z,99334.22
2023-05-05T13:52:00.694Z,99333.28
2023-05-05T13:55:04.327Z,99328.97
2023-05-05T13:58:07.801Z,99335.00
2023-05-05T14:01:11.941Z,99324.09
2023-05-05T14:04:17.067Z,99327.44
2023-05-05T14:07:21.524Z,99326.38
2023-05-05T14:10:26.298Z,99324.63
2023-05-05T14:13:30.303Z,99316.19
2023-05-05T14:16:33.937Z,99312.56
2023-05-05T14:19:39.578Z,99310.28
2023-05-05T14:22:43.381Z,99317.78
2023-05-05T14:25:48.178Z,99315.59
2023-05-05T14:28:52.136Z,99312.38
2023-05-05T14:31:55.852Z,99320.31
2023-05-05T14:35:01.070Z,99320.56
2023-05-05T14:38:04.584Z,99318.81
2023-05-05T14:41:08.340Z,99318.38
2023-05-05T14:44:12.261Z,99316.41
2023-05-05T14:47:15.739Z,99314.59
2023-05-05T14:50:20.876Z,99304.59
2023-05-05T14:53:24.853Z,99309.31
2023-05-05T14:56:28.649Z,99304.91
2023-05-05T14:59:32.233Z,99303.00
2023-05-05T15:02:36.547Z,99292.72
2023-05-05T15:05:42.470Z,99298.34
2023-05-05T15:08:46.083Z,99292.63
2023-05-05T15:11:49.590Z,99292.56
2023-05-05T15:14:53.238Z,99276.47
2023-05-05T15:17:57.037Z,99289.84
2023-05-05T15:21:01.887Z,99283.69
2023-05-05T15:24:05.874Z,99286.72
2023-05-05T15:27:09.330Z,99282.44
2023-05-05T15:30:14.433Z,99289.84
2023-05-05T15:33:18.168Z,99283.34
2023-05-05T15:36:25.019Z,99291.13
2023-05-05T15:39:29.707Z,99288.78
2023-05-05T15:42:34.539Z,99284.69
2023-05-05T15:45:38.624Z,99283.19
2023-05-05T15:48:42.440Z,99281.84
2023-05-05T15:51:48.548Z,99280.84
2023-05-05T15:54:52.048Z,99271.34
2023-05-05T15:57:58.182Z,99276.59
2023-05-05T16:01:01.805Z,99275.72
2023-05-05T16:04:05.725Z,99265.31
2023-05-05T16:07:11.403Z,99266.00
2023-05-05T16:10:15.228Z,99261.84
2023-05-05T16:13:18.684Z,99260.16
2023-05-05T16:16:22.596Z,99269.47
2023-05-05T16:19:30.169Z,99270.59
2023-05-05T16:22:35.058Z,99270.44
2023-05-05T16:25:38.750Z,99264.34
2023-05-05T16:28:42.176Z,99271.56
2023-05-05T16:31:45.903Z,99274.31
2023-05-05T16:34:49.749Z,99273.84
2023-05-05T16:37:55.187Z,99264.16
2023-05-05T16:40:58.795Z,99268.03
2023-05-05T16:44:02.210Z,99262.88
2023-05-05T16:47:05.698Z,99256.16
2023-05-05T16:50:10.421Z,99259.81
2023-05-05T16:53:15.324Z,99265.69
2023-05-05T16:56:18.746Z,99260.31
2023-05-05T16:59:22.225Z,99249.28
2023-05-05T17:02:26.127Z,99263.34
2023-05-05T17:05:29.741Z,99259.63
2023-05-05T17:08:34.888Z,99263.03
2023-05-05T17:11:38.501Z,99266.97
2023-05-05T17:14:42.293Z,99271.16
2023-05-05T17:17:46.199Z,99263.50
2023-05-05T17:20:50.484Z,99263.94
2023-05-05T17:23:55.595Z,99261.25
2023-05-05T17:26:59.699Z,99267.06
2023-05-05T17:30:03.378Z,99258.41
2023-05-05T17:33:07.080Z,99270.22
2023-05-05T17:36:11.268Z,99272.69
2023-05-05T17:39:16.176Z,99270.84
2023-05-05T17:42:23.183Z,99271.28
2023-05-05T17:45:26.887Z,99264.19
2023-05-05T17:48:31.421Z,99259.66
2023-05-05T17:51:35.188Z,99260.38
2023-05-05T17:54:42.498Z,99263.31
2023-05-05T17:57:47.570Z,99259.34
2023-05-05T18:00:51.745Z,99269.38
2023-05-05T18:03:55.694Z,99272.59
2023-05-05T18:06:59.298Z,99271.66
2023-05-05T18:10:05.057Z,99277.50
2023-05-05T18:13:08.562Z,99280.50
2023-05-05T18:16:12.735Z,99278.97
2023-05-05T18:19:16.367Z,99279.69
2023-05-05T18:22:20.038Z,99284.84
2023-05-05T18:25:25.211Z,99288.47
2023-05-05T18:28:29.030Z,99289.03
2023-05-05T18:31:32.872Z,99292.38
2023-05-05T18:34:36.408Z,99295.38
2023-05-05T18:37:39.764Z,99295.72
2023-05-05T18:40:44.525Z,99307.38
2023-05-05T18:43:47.799Z,99308.38
2023-05-05T18:46:51.619Z,99303.44
2023-05-05T18:49:55.146Z,99303.91
2023-05-05T18:52:58.480Z,99316.66
2023-05-05T18:56:03.346Z,99311.53
2023-05-05T18:59:06.757Z,99326.22
2023-05-05T19:02:10.135Z,99314.72
2023-05-05T19:05:13.679Z,99322.47
2023-05-05T19:08:16.995Z,99315.19
2023-05-05T19:11:22.115Z,99315.31
2023-05-05T19:14:25.706Z,99313.75
2023-05-05T19:17:29.221Z,99323.19
2023-05-05T19:20:33.148Z,99319.91
2023-05-05T19:23:38.258Z,99325.16
2023-05-05T19:26:44.215Z,99320.88
2023-05-05T19:29:52.154Z,99319.81
2023-05-05T19:32:55.870Z,99321.38
2023-05-05T19:35:59.232Z,99312.00
2023-05-05T19:39:03.873Z,99322.19
2023-05-05T19:42:08.733Z,99327.19
2023-05-05T19:45:12.279Z,99323.41
2023-05-05T19:48:16.067Z,99324.72
2023-05-05T19:51:19.443Z,99328.16
2023-05-05T19:54:24.496Z,99324.72
2023-05-05T19:57:29.208Z,99326.41
2023-05-05T20:00:32.861Z,99326.88
2023-05-05T20:03:36.304Z,99323.88
2023-05-05T20:06:39.624Z,99324.09
2023-05-05T20:09:43.164Z,99325.91
2023-05-05T20:12:49.209Z,99315.31
2023-05-05T20:15:53.070Z,99323.03
2023-05-05T20:18:56.425Z,99313.44
2023-05-05T20:21:59.759Z,99318.38
2023-05-05T20:25:03.549Z,99312.75
2023-05-05T20:28:08.533Z,99316.97
2023-05-05T20:31:14.738Z,99323.84
2023-05-05T20:34:18.182Z,99319.31
2023-05-05T20:37:22.362Z,99323.50
2023-05-05T20:40:25.836Z,99333.00
2023-05-05T20:43:30.695Z,99321.38
2023-05-05T20:46:34.391Z,99314.84
2023-05-05T20:49:37.742Z,99318.91
2023-05-05T20:52:41.463Z,99312.00
2023-05-05T20:55:44.952Z,99313.31
2023-05-05T20:58:51.950Z,99309.81
2023-05-05T21:01:55.611Z,99313.72
2023-05-05T21:05:02.955Z,99300.72
2023-05-05T21:08:06.944Z,99305.13
2023-05-05T21:11:11.086Z,99299.13
2023-05-05T21:14:16.084Z,99303.94
2023-05-05T21:17:19.572Z,99301.72
2023-05-05T21:20:33.180Z,99298.38
2023-05-05T21:23:36.644Z,99291.38
2023-05-05T21:26:43.202Z,99285.22
2023-05-05T21:29:48.177Z,99279.25
2023-05-05T21:32:51.784Z,99288.31
2023-05-05T21:35:55.152Z,99283.81
2023-05-05T21:39:00.285Z,99281.28
2023-05-05T21:42:03.751Z,99282.66
2023-05-05T21:45:09.936Z,99286.59
2023-05-05T21:48:13.326Z,99286.19
2023-05-05T21:51:16.717Z,99280.41
2023-05-05T21:54:20.459Z,99280.00
2023-05-05T21:57:23.805Z,99265.28
2023-05-05T22:00:28.594Z,99267.94
2023-05-05T22:03:32.158Z,99269.78
2023-05-05T22:06:35.611Z,99276.59
2023-05-05T22:09:39.376Z,99272.22
2023-05-05T22:12:42.841Z,99273.69
2023-05-05T22:15:47.881Z,99267.72
2023-05-05T22:18:51.609Z,99266.44
2023-05-05T22:21:59.447Z,99279.34
2023-05-05T22:25:02.961Z,99269.72
2023-05-05T22:28:06.448Z,99264.41
2023-05-05T22:31:11.686Z,99260.69
2023-05-05T22:34:15.304Z,99255.81
2023-05-05T22:37:18.867Z,99267.19
2023-05-05T22:40:22.236Z,99268.34
2023-05-05T22:43:25.831Z,99272.91
2023-05-05T22:46:30.657Z,99272.47
2023-05-05T22:49:34.097Z,99266.59
2023-05-05T22:52:37.854Z,99265.41
2023-05-05T22:55:41.308Z,99271.91
2023-05-05T22:58:46.833Z,99276.78
2023-05-05T23:01:51.731Z,99277.13
2023-05-05T23:04:56.127Z,99276.25
2023-05-05T23:08:01.347Z,99262.19
2023-05-05T23:11:05.100Z,99253.44
2023-05-05T23:14:08.748Z,99249.06
2023-05-05T23:17:13.761Z,99246.06
2023-05-05T23:20:17.408Z,99245.78
2023-05-05T23:23:20.771Z,99237.25
2023-05-05T23:26:24.128Z,99240.00
2023-05-05T23:29:27.945Z,99241.06
2023-05-05T23:32:32.785Z,99246.09
2023-05-05T23:35:39.414Z,99236.91
2023-05-05T23:38:42.856Z,99235.28
2023-05-05T23:41:46.277Z,99227.31
2023-05-05T23:44:49.818Z,99225.41
2023-05-05T23:47:54.792Z,99232.44
2023-05-05T23:50:58.529Z,99219.72
2023-05-05T23:54:02.469Z,99211.91
2023-05-05T23:57:06.254Z,99212.13
